| time (UTC) | temp C | wind direction | speed KPH | gust KPH | rain 1hr cm | rain 24hr cm | rain mn cm | humidity % | barometer mb |
| 20260508043939 | 8 | 0 | 0.0 | 0.0 | 0.00 | 0.61 | 0.00 | 85 | 1009.7 |
| 20260508042921 | 8 | 0 | 0.0 | 0.0 | 0.00 | 0.61 | 0.00 | 85 | 1009.6 |
| 20260508042105 | 8 | 276 | 0.0 | 3.2 | 0.00 | 0.61 | 0.00 | 84 | 1009.5 |
| 20260508040831 | 8 | 276 | 0.0 | 3.2 | 0.00 | 0.61 | 0.00 | 84 | 1009.5 |
| 20260508035813 | 8 | 276 | 0.0 | 1.6 | 0.00 | 0.61 | 0.61 | 83 | 1009.5 |
| 20260508034754 | 8 | 276 | 0.0 | 1.6 | 0.00 | 0.61 | 0.61 | 83 | 1009.5 |
| 20260508033735 | 8 | 310 | 0.0 | 3.2 | 0.00 | 0.61 | 0.61 | 82 | 1009.5 |
| 20260508032717 | 8 | 128 | 0.0 | 0.0 | 0.00 | 0.61 | 0.61 | 82 | 1009.4 |
| 20260508031701 | 8 | 128 | 0.0 | 0.0 | 0.00 | 0.61 | 0.61 | 81 | 1009.5 |
| 20260508030644 | 8 | 128 | 0.0 | 0.0 | 0.00 | 0.61 | 0.61 | 80 | 1009.5 |
| 20260508025627 | 8 | 164 | 0.0 | 0.0 | 0.00 | 0.61 | 0.61 | 80 | 1009.4 |
| 20260508024609 | 8 | 164 | 0.0 | 0.0 | 0.00 | 0.61 | 0.61 | 78 | 1009.4 |
| 20260508023552 | 9 | 168 | 0.0 | 0.0 | 0.00 | 0.61 | 0.61 | 78 | 1009.5 |
| 20260508022750 | 9 | 166 | 0.0 | 0.0 | 0.00 | 0.61 | 0.61 | 77 | 1009.6 |
| 20260508021520 | 9 | 168 | 0.0 | 0.0 | 0.00 | 0.61 | 0.61 | 75 | 1009.5 |
| 20260508020501 | 10 | 168 | 0.0 | 0.0 | 0.00 | 0.61 | 0.61 | 75 | 1009.5 |
| 20260508015419 | 10 | 319 | 0.0 | 4.8 | 0.00 | 0.61 | 0.61 | 73 | 1009.3 |
| 20260508014336 | 10 | 359 | 0.0 | 4.8 | 0.00 | 0.61 | 0.61 | 71 | 1009.2 |
| 20260508013319 | 10 | 291 | 0.0 | 4.8 | 0.00 | 0.61 | 0.61 | 70 | 1009.2 |
| 20260508012307 | 11 | 253 | 0.0 | 3.2 | 0.00 | 0.61 | 0.61 | 68 | 1009.0 |
| 20260508011246 | 11 | 113 | 0.0 | 0.0 | 0.00 | 0.61 | 0.61 | 65 | 1008.9 |
| 20260508010229 | 11 | 26 | 0.0 | 0.0 | 0.00 | 0.61 | 0.61 | 64 | 1008.9 |
| 20260508005426 | 11 | 10 | 0.0 | 0.0 | 0.00 | 0.61 | 0.61 | 61 | 1008.8 |
| 20260508004156 | 12 | 10 | 0.0 | 0.0 | 0.00 | 0.61 | 0.61 | 59 | 1008.6 |
| 20260508003354 | 12 | 10 | 0.0 | 0.0 | 0.00 | 0.61 | 0.61 | 58 | 1008.6 |
| 20260508002122 | 12 | 12 | 0.0 | 0.0 | 0.00 | 0.61 | 0.61 | 55 | 1008.4 |
| 20260508001105 | 12 | 8 | 0.0 | 0.0 | 0.00 | 0.61 | 0.61 | 53 | 1008.3 |
| 20260508000047 | 13 | 247 | 0.0 | 3.2 | 0.00 | 0.61 | 0.61 | 50 | 1008.2 |
| 20260507235029 | 13 | 247 | 0.0 | 3.2 | 0.00 | 0.61 | 0.61 | 49 | 1008.2 |
| 20260507234011 | 14 | 72 | 0.0 | 0.0 | 0.00 | 0.61 | 0.61 | 46 | 1008.1 |
| 20260507232954 | 15 | 4 | 0.0 | 0.0 | 0.00 | 0.61 | 0.61 | 46 | 1008.0 |
| 20260507231938 | 15 | 2 | 0.0 | 0.0 | 0.00 | 0.61 | 0.61 | 44 | 1007.9 |
| 20260507230921 | 15 | 0 | 0.0 | 0.0 | 0.00 | 0.61 | 0.61 | 42 | 1007.8 |
| 20260507225904 | 16 | 0 | 0.0 | 0.0 | 0.00 | 0.61 | 0.61 | 41 | 1007.9 |
| 20260507224847 | 16 | 72 | 0.0 | 0.0 | 0.00 | 0.61 | 0.61 | 40 | 1007.8 |
| 20260507223830 | 16 | 72 | 1.6 | 0.0 | 0.00 | 0.61 | 0.61 | 40 | 1007.9 |
| 20260507222813 | 16 | 4 | 1.6 | 0.0 | 0.00 | 0.61 | 0.61 | 39 | 1007.9 |
| 20260507221755 | 17 | 2 | 1.6 | 0.0 | 0.00 | 0.61 | 0.61 | 39 | 1007.9 |
| 20260507220739 | 17 | 0 | 1.6 | 0.0 | 0.00 | 0.61 | 0.61 | 37 | 1007.9 |
| 20260507215912 | 17 | 64 | 1.6 | 0.0 | 0.00 | 0.61 | 0.61 | 35 | 1008.0 |
| 20260507214638 | 17 | 68 | 1.6 | 0.0 | 0.00 | 0.61 | 0.61 | 36 | 1008.0 |
| 20260507213621 | 17 | 68 | 1.6 | 0.0 | 0.00 | 0.61 | 0.61 | 36 | 1007.9 |
| 20260507212821 | 17 | 70 | 1.6 | 0.0 | 0.00 | 0.61 | 0.61 | 36 | 1007.9 |
| 20260507211547 | 18 | 70 | 1.6 | 0.0 | 0.00 | 0.61 | 0.61 | 36 | 1007.9 |
| 20260507210505 | 18 | 0 | 1.6 | 0.0 | 0.00 | 0.61 | 0.61 | 35 | 1007.8 |
| 20260507205448 | 18 | 326 | 3.2 | 9.7 | 0.00 | 0.61 | 0.61 | 35 | 1007.7 |
| 20260507204431 | 18 | 316 | 1.6 | 8.0 | 0.00 | 0.61 | 0.61 | 36 | 1007.7 |
| 20260507203414 | 18 | 78 | 1.6 | 0.0 | 0.00 | 0.61 | 0.61 | 36 | 1007.7 |
| 20260507202358 | 18 | 340 | 1.6 | 8.0 | 0.00 | 0.61 | 0.61 | 36 | 1007.8 |
| 20260507201555 | 18 | 340 | 1.6 | 12.9 | 0.00 | 0.61 | 0.61 | 36 | 1007.9 |
| 20260507200258 | 18 | 345 | 3.2 | 0.0 | 0.00 | 0.61 | 0.61 | 37 | 1007.9 |
| 20260507195242 | 18 | 263 | 1.6 | 0.0 | 0.00 | 0.61 | 0.61 | 36 | 1008.0 |
| 20260507194225 | 18 | 254 | 3.2 | 0.0 | 0.00 | 0.61 | 0.61 | 36 | 1008.2 |
| 20260507193206 | 18 | 322 | 1.6 | 11.3 | 0.00 | 0.61 | 0.61 | 37 | 1008.2 |
| 20260507192150 | 18 | 312 | 1.6 | 0.0 | 0.00 | 0.61 | 0.61 | 37 | 1008.4 |
| 20260507191133 | 18 | 312 | 3.2 | 0.0 | 0.00 | 0.64 | 0.61 | 38 | 1008.5 |
| 20260507190117 | 18 | 98 | 3.2 | 9.7 | 0.00 | 0.64 | 0.61 | 39 | 1008.5 |
| 20260507185059 | 18 | 316 | 1.6 | 0.0 | 0.00 | 0.64 | 0.61 | 39 | 1008.7 |
| 20260507184043 | 18 | 312 | 3.2 | 0.0 | 0.00 | 0.64 | 0.61 | 40 | 1008.9 |
| 20260507183026 | 17 | 256 | 3.2 | 0.0 | 0.00 | 0.64 | 0.61 | 40 | 1009.0 |
| 20260507182009 | 17 | 316 | 3.2 | 0.0 | 0.00 | 0.64 | 0.61 | 40 | 1009.0 |
| 20260507180953 | 17 | 310 | 1.6 | 12.9 | 0.00 | 0.64 | 0.61 | 40 | 1009.2 |
| 20260507175935 | 17 | 4 | 3.2 | 0.0 | 0.00 | 0.66 | 0.61 | 41 | 1009.3 |
| 20260507174919 | 17 | 68 | 3.2 | 0.0 | 0.00 | 0.66 | 0.61 | 41 | 1009.5 |
| 20260507173902 | 17 | 70 | 3.2 | 0.0 | 0.00 | 0.66 | 0.61 | 41 | 1009.7 |
| 20260507172754 | 17 | 66 | 3.2 | 0.0 | 0.00 | 0.66 | 0.61 | 43 | 1009.9 |
| 20260507171731 | 17 | 66 | 3.2 | 0.0 | 0.00 | 0.66 | 0.61 | 43 | 1009.9 |
| 20260507170715 | 17 | 66 | 3.2 | 0.0 | 0.00 | 0.66 | 0.61 | 44 | 1010.1 |
| 20260507165658 | 16 | 0 | 3.2 | 12.9 | 0.00 | 0.66 | 0.61 | 44 | 1010.3 |
| 20260507164641 | 16 | 0 | 1.6 | 12.9 | 0.00 | 0.66 | 0.61 | 44 | 1010.3 |
| 20260507163620 | 16 | 70 | 3.2 | 12.9 | 0.00 | 0.71 | 0.61 | 46 | 1010.5 |
| 20260507162819 | 16 | 6 | 3.2 | 12.9 | 0.00 | 0.74 | 0.61 | 47 | 1010.6 |
| 20260507161602 | 16 | 0 | 3.2 | 12.9 | 0.00 | 0.74 | 0.61 | 48 | 1010.7 |
| 20260507160545 | 16 | 0 | 3.2 | 12.9 | 0.00 | 0.74 | 0.61 | 50 | 1010.8 |
| 20260507155740 | 15 | 345 | 3.2 | 0.0 | 0.00 | 0.76 | 0.61 | 50 | 1011.0 |
| 20260507154455 | 15 | 89 | 3.2 | 0.0 | 0.00 | 0.79 | 0.61 | 52 | 1011.2 |
| 20260507153626 | 15 | 327 | 3.2 | 11.3 | 0.00 | 0.79 | 0.61 | 53 | 1011.3 |
| 20260507152355 | 14 | 111 | 3.2 | 0.0 | 0.00 | 0.79 | 0.61 | 54 | 1011.5 |
| 20260507151313 | 14 | 51 | 3.2 | 0.0 | 0.00 | 0.79 | 0.61 | 58 | 1011.6 |
| 20260507150510 | 14 | 64 | 3.2 | 0.0 | 0.00 | 0.79 | 0.61 | 59 | 1011.6 |
| 20260507145210 | 14 | 162 | 3.2 | 0.0 | 0.00 | 0.79 | 0.61 | 63 | 1011.7 |
| 20260507144154 | 13 | 123 | 3.2 | 0.0 | 0.00 | 0.79 | 0.61 | 65 | 1011.9 |
| 20260507143133 | 13 | 66 | 3.2 | 0.0 | 0.00 | 0.79 | 0.61 | 67 | 1011.9 |
| 20260507142113 | 13 | 64 | 1.6 | 0.0 | 0.00 | 0.79 | 0.61 | 70 | 1011.9 |
| 20260507141056 | 12 | 0 | 3.2 | 0.0 | 0.00 | 0.79 | 0.61 | 72 | 1012.0 |
| 20260507140039 | 12 | 66 | 1.6 | 0.0 | 0.00 | 0.79 | 0.61 | 74 | 1012.0 |
| 20260507135022 | 12 | 62 | 1.6 | 0.0 | 0.00 | 0.79 | 0.61 | 76 | 1011.8 |
| 20260507134003 | 11 | 62 | 1.6 | 0.0 | 0.00 | 0.79 | 0.61 | 79 | 1012.0 |
| 20260507132852 | 11 | 62 | 1.6 | 0.0 | 0.00 | 0.79 | 0.61 | 82 | 1011.9 |
| 20260507132049 | 11 | 62 | 1.6 | 0.0 | 0.03 | 0.79 | 0.61 | 83 | 1011.9 |
| 20260507131035 | 10 | 62 | 1.6 | 0.0 | 0.03 | 0.79 | 0.61 | 85 | 1012.0 |
| 20260507125803 | 10 | 296 | 1.6 | 0.0 | 0.03 | 0.79 | 0.61 | 86 | 1012.0 |
| 20260507124740 | 10 | 296 | 1.6 | 0.0 | 0.03 | 0.79 | 0.61 | 87 | 1012.0 |
| 20260507123723 | 10 | 296 | 0.0 | 0.0 | 0.03 | 0.79 | 0.61 | 88 | 1011.9 |
| 20260507122705 | 10 | 294 | 0.0 | 0.0 | 0.03 | 0.79 | 0.61 | 89 | 1012.0 |
| 20260507121646 | 10 | 292 | 0.0 | 0.0 | 0.00 | 0.76 | 0.58 | 90 | 1012.0 |
| 20260507120904 | 10 | 290 | 0.0 | 0.0 | 0.00 | 0.76 | 0.58 | 90 | 1012.0 |
| 20260507115613 | 10 | 300 | 0.0 | 0.0 | 0.00 | 0.76 | 0.58 | 90 | 1011.8 |
| 20260507114556 | 10 | 298 | 0.0 | 0.0 | 0.00 | 0.76 | 0.58 | 90 | 1011.8 |
| 20260507113529 | 10 | 294 | 0.0 | 0.0 | 0.00 | 0.76 | 0.58 | 91 | 1011.6 |
| 20260507112513 | 10 | 298 | 0.0 | 0.0 | 0.00 | 0.76 | 0.58 | 91 | 1011.5 |
| 20260507111447 | 10 | 300 | 0.0 | 0.0 | 0.00 | 0.76 | 0.58 | 91 | 1011.3 |
| 20260507110426 | 9 | 296 | 0.0 | 0.0 | 0.00 | 0.76 | 0.58 | 91 | 1011.1 |
| 20260507105408 | 9 | 308 | 0.0 | 0.0 | 0.00 | 0.76 | 0.58 | 92 | 1011.0 |
| 20260507104607 | 9 | 308 | 0.0 | 0.0 | 0.00 | 0.76 | 0.58 | 92 | 1010.9 |
| 20260507103333 | 9 | 248 | 0.0 | 0.0 | 0.00 | 0.76 | 0.58 | 92 | 1010.8 |
| 20260507102315 | 9 | 248 | 0.0 | 0.0 | 0.00 | 0.76 | 0.58 | 92 | 1010.6 |
| 20260507101257 | 9 | 306 | 0.0 | 0.0 | 0.00 | 0.76 | 0.58 | 92 | 1010.5 |
| 20260507100240 | 9 | 306 | 0.0 | 0.0 | 0.00 | 0.76 | 0.58 | 92 | 1010.5 |
| 20260507095220 | 9 | 256 | 0.0 | 0.0 | 0.00 | 0.76 | 0.58 | 92 | 1010.4 |
| 20260507094203 | 9 | 316 | 0.0 | 0.0 | 0.00 | 0.76 | 0.58 | 92 | 1010.4 |
| 20260507093147 | 9 | 316 | 0.0 | 0.0 | 0.00 | 0.76 | 0.58 | 92 | 1010.4 |
| 20260507092130 | 9 | 320 | 0.0 | 0.0 | 0.03 | 0.76 | 0.58 | 92 | 1010.2 |
| 20260507091111 | 9 | 320 | 0.0 | 0.0 | 0.03 | 0.76 | 0.58 | 92 | 1010.2 |
| 20260507090054 | 9 | 316 | 0.0 | 6.4 | 0.03 | 0.76 | 0.58 | 92 | 1010.2 |
| 20260507085035 | 9 | 324 | 0.0 | 0.0 | 0.05 | 0.76 | 0.58 | 92 | 1010.1 |
| 20260507084234 | 9 | 324 | 0.0 | 0.0 | 0.08 | 0.76 | 0.58 | 92 | 1010.1 |
| 20260507083150 | 9 | 322 | 0.0 | 0.0 | 0.08 | 0.76 | 0.58 | 92 | 1010.2 |
| 20260507081919 | 9 | 324 | 0.0 | 0.0 | 0.08 | 0.74 | 0.56 | 91 | 1010.4 |
| 20260507081114 | 9 | 320 | 0.0 | 0.0 | 0.08 | 0.74 | 0.56 | 91 | 1010.5 |
| 20260507075844 | 9 | 322 | 0.0 | 0.0 | 0.10 | 0.74 | 0.56 | 91 | 1010.5 |
| 20260507074826 | 9 | 314 | 1.6 | 0.0 | 0.10 | 0.71 | 0.53 | 91 | 1010.5 |
| 20260507073809 | 10 | 324 | 0.0 | 0.0 | 0.18 | 0.66 | 0.51 | 91 | 1010.6 |
| 20260507072752 | 10 | 320 | 1.6 | 0.0 | 0.18 | 0.66 | 0.51 | 91 | 1010.5 |
| 20260507071732 | 10 | 320 | 1.6 | 0.0 | 0.18 | 0.64 | 0.48 | 91 | 1010.3 |
| 20260507070715 | 10 | 318 | 1.6 | 0.0 | 0.18 | 0.64 | 0.48 | 91 | 1010.4 |
| 20260507065654 | 10 | 318 | 1.6 | 0.0 | 0.18 | 0.61 | 0.46 | 91 | 1010.4 |
| 20260507064638 | 10 | 318 | 1.6 | 0.0 | 0.23 | 0.58 | 0.43 | 91 | 1010.2 |
| 20260507063555 | 10 | 320 | 1.6 | 0.0 | 0.23 | 0.51 | 0.33 | 90 | 1010.0 |
| 20260507062536 | 10 | 324 | 1.6 | 0.0 | 0.28 | 0.51 | 0.33 | 90 | 1010.1 |
| 20260507061517 | 10 | 322 | 1.6 | 0.0 | 0.30 | 0.48 | 0.30 | 89 | 1010.0 |
| 20260507060707 | 11 | 318 | 0.0 | 0.0 | 0.30 | 0.48 | 0.30 | 89 | 1009.9 |
| 20260507055426 | 11 | 330 | 0.0 | 11.3 | 0.28 | 0.46 | 0.28 | 88 | 1009.9 |
| 20260507054403 | 11 | 334 | 1.6 | 11.3 | 0.20 | 0.36 | 0.20 | 86 | 1009.6 |
| 20260507053345 | 12 | 326 | 1.6 | 0.0 | 0.10 | 0.28 | 0.10 | 85 | 1009.5 |
| 20260507052325 | 12 | 338 | 1.6 | 0.0 | 0.05 | 0.23 | 0.05 | 83 | 1009.4 |
| 20260507051522 | 12 | 340 | 0.0 | 0.0 | 0.00 | 0.18 | 0.00 | 83 | 1009.1 |
| 20260507050249 | 12 | 340 | 1.6 | 9.7 | 0.00 | 0.18 | 0.00 | 83 | 1009.2 |
| 20260507045231 | 13 | 340 | 1.6 | 0.0 | 0.00 | 0.18 | 0.00 | 84 | 1009.1 |
| 20260507044427 | 13 | 340 | 1.6 | 0.0 | 0.00 | 0.18 | 0.00 | 83 | 1009.4 |